createdAt,value
2023-03-26T00:00:17.350Z,86.62
2023-03-26T00:02:18.944Z,86.98
2023-03-26T00:04:21.751Z,87.00
2023-03-26T00:06:26.382Z,88.00
2023-03-26T00:08:27.932Z,88.16
2023-03-26T00:10:29.606Z,88.00
2023-03-26T00:12:31.202Z,87.74
2023-03-26T00:14:33.439Z,87.44
2023-03-26T00:16:36.047Z,86.78
2023-03-26T00:18:40.326Z,87.45
2023-03-26T00:20:41.822Z,87.54
2023-03-26T00:22:43.359Z,87.05
2023-03-26T00:24:47.512Z,86.78
2023-03-26T00:26:54.592Z,87.35
2023-03-26T00:28:58.154Z,87.54
2023-03-26T00:31:02.476Z,86.92
2023-03-26T00:33:04.312Z,87.81
2023-03-26T00:35:06.363Z,87.79
2023-03-26T00:37:08.746Z,87.61
2023-03-26T00:39:10.423Z,87.52
2023-03-26T00:41:25.458Z,87.85
2023-03-26T00:43:32.678Z,87.84
2023-03-26T00:45:34.187Z,87.86
2023-03-26T00:47:36.303Z,88.06
2023-03-26T00:49:39.291Z,88.13
2023-03-26T00:51:41.790Z,87.84
2023-03-26T00:53:45.781Z,87.13
2023-03-26T00:55:47.880Z,87.40
2023-03-26T00:57:49.377Z,87.25
2023-03-26T00:59:51.273Z,87.84
2023-03-26T01:01:54.932Z,87.60
2023-03-26T01:04:08.939Z,87.96
2023-03-26T01:06:14.079Z,88.01
2023-03-26T01:08:30.604Z,87.57
2023-03-26T01:10:38.868Z,87.28
2023-03-26T01:12:40.599Z,86.81
2023-03-26T01:14:43.116Z,87.93
2023-03-26T01:16:52.825Z,87.45
2023-03-26T01:18:54.863Z,87.76
2023-03-26T01:20:58.548Z,86.92
2023-03-26T01:23:08.084Z,87.56
2023-03-26T01:25:10.080Z,87.83
2023-03-26T01:27:32.254Z,87.48
2023-03-26T01:29:54.609Z,87.58
2023-03-26T01:32:09.508Z,87.29
2023-03-26T01:34:17.759Z,88.62
2023-03-26T01:36:38.043Z,87.83
2023-03-26T01:38:50.152Z,88.14
2023-03-26T01:41:16.246Z,88.05
2023-03-26T01:43:32.773Z,88.49
2023-03-26T01:45:38.680Z,88.22
2023-03-26T01:47:42.179Z,87.77
2023-03-26T01:49:43.755Z,87.59
2023-03-26T01:51:45.831Z,87.10
2023-03-26T01:53:48.261Z,87.21
2023-03-26T01:56:10.833Z,87.47
2023-03-26T01:58:29.959Z,86.99
2023-03-26T02:00:35.860Z,87.44
2023-03-26T02:03:17.366Z,87.85
2023-03-26T02:05:26.271Z,87.26
2023-03-26T02:07:41.063Z,87.32
2023-03-26T02:09:45.837Z,87.11
2023-03-26T02:11:49.407Z,86.73
2023-03-26T02:13:51.810Z,87.17
2023-03-26T02:16:01.611Z,87.20
2023-03-26T02:18:04.047Z,86.76
2023-03-26T02:20:11.233Z,87.83
2023-03-26T02:22:15.511Z,87.31
2023-03-26T02:24:19.750Z,87.44
2023-03-26T02:26:21.864Z,87.18
2023-03-26T02:28:31.509Z,87.46
2023-03-26T02:30:33.607Z,87.86
2023-03-26T02:32:36.587Z,87.98
2023-03-26T02:34:41.954Z,88.38
2023-03-26T02:36:43.754Z,88.37
2023-03-26T02:38:45.283Z,88.04
2023-03-26T02:40:49.240Z,88.60
2023-03-26T02:42:51.040Z,89.00
2023-03-26T02:44:52.582Z,88.96
2023-03-26T02:46:54.193Z,88.80
2023-03-26T02:49:16.201Z,88.81
2023-03-26T02:51:19.441Z,89.06
2023-03-26T02:53:30.648Z,88.65
2023-03-26T02:55:52.549Z,88.39
2023-03-26T02:57:56.339Z,88.97
2023-03-26T03:00:13.969Z,88.59
2023-03-26T03:02:34.726Z,87.94
2023-03-26T03:05:01.376Z,88.71
2023-03-26T03:07:07.731Z,88.86
2023-03-26T03:09:09.752Z,88.92
2023-03-26T03:11:24.908Z,88.60
2023-03-26T03:13:28.027Z,88.54
2023-03-26T03:15:29.638Z,89.43
2023-03-26T03:17:31.256Z,89.82
2023-03-26T03:19:32.984Z,89.32
2023-03-26T03:21:35.186Z,88.88
2023-03-26T03:23:37.093Z,89.18
2023-03-26T03:25:45.351Z,89.78
2023-03-26T03:27:47.828Z,88.88
2023-03-26T03:29:49.754Z,88.64
2023-03-26T03:32:23.526Z,88.87
2023-03-26T03:34:27.870Z,91.09
2023-03-26T03:36:30.393Z,90.22
2023-03-26T03:38:40.795Z,90.04
2023-03-26T03:40:44.433Z,89.73
2023-03-26T03:42:46.778Z,87.53
2023-03-26T03:44:53.828Z,88.32
2023-03-26T03:47:18.622Z,89.30
2023-03-26T03:49:22.548Z,88.81
2023-03-26T03:51:24.427Z,88.11
2023-03-26T03:53:30.458Z,89.75
2023-03-26T03:55:38.308Z,89.55
2023-03-26T03:57:40.507Z,90.46
2023-03-26T03:59:47.988Z,91.04
2023-03-26T04:01:51.111Z,90.66
2023-03-26T04:04:08.175Z,88.79
2023-03-26T04:06:21.221Z,91.65
2023-03-26T04:08:26.616Z,91.35
2023-03-26T04:10:30.305Z,89.95
2023-03-26T04:12:38.518Z,92.15
2023-03-26T04:14:41.053Z,90.63
2023-03-26T04:16:48.975Z,90.82
2023-03-26T04:18:50.923Z,91.72
2023-03-26T04:20:55.416Z,90.18
2023-03-26T04:23:00.984Z,89.62
2023-03-26T04:25:02.911Z,89.53
2023-03-26T04:27:28.126Z,89.15
2023-03-26T04:29:42.826Z,88.43
2023-03-26T04:31:50.408Z,88.99
2023-03-26T04:33:55.128Z,88.69
2023-03-26T04:36:02.245Z,89.00
2023-03-26T04:38:06.495Z,88.18
2023-03-26T04:40:17.496Z,88.86
2023-03-26T04:42:46.287Z,89.25
2023-03-26T04:44:59.647Z,89.12
2023-03-26T04:47:01.771Z,89.74
2023-03-26T04:49:19.588Z,89.42
2023-03-26T04:51:27.059Z,90.37
2023-03-26T04:53:29.732Z,90.14
2023-03-26T04:55:41.025Z,90.80
2023-03-26T04:57:55.899Z,90.11
2023-03-26T05:00:20.283Z,90.58
2023-03-26T05:02:28.788Z,91.27
2023-03-26T05:04:31.318Z,92.86
2023-03-26T05:06:34.434Z,92.07
2023-03-26T05:08:41.630Z,91.59
2023-03-26T05:10:46.392Z,91.30
2023-03-26T05:12:54.068Z,91.10
2023-03-26T05:15:00.420Z,91.31
2023-03-26T05:17:30.886Z,91.22
2023-03-26T05:19:33.125Z,91.13
2023-03-26T05:21:35.270Z,91.56
2023-03-26T05:23:39.525Z,91.26
2023-03-26T05:26:01.614Z,91.75
2023-03-26T05:28:03.250Z,90.98
2023-03-26T05:30:15.996Z,90.89
2023-03-26T05:32:20.809Z,90.59
2023-03-26T05:34:27.081Z,90.77
2023-03-26T05:36:29.095Z,90.77
2023-03-26T05:38:43.404Z,90.02
2023-03-26T05:40:46.984Z,89.62
2023-03-26T05:42:53.140Z,89.72
2023-03-26T05:45:15.391Z,89.56
2023-03-26T05:47:17.113Z,89.84
2023-03-26T05:49:19.102Z,89.66
2023-03-26T05:51:23.287Z,90.41
2023-03-26T05:53:50.342Z,90.86
2023-03-26T05:56:17.665Z,91.13
2023-03-26T05:58:38.593Z,91.41
2023-03-26T06:01:05.754Z,92.07
2023-03-26T06:03:28.698Z,91.83
2023-03-26T06:05:42.955Z,92.02
2023-03-26T06:07:52.895Z,92.52
2023-03-26T06:09:54.950Z,93.07
2023-03-26T06:11:56.770Z,92.54
2023-03-26T06:13:58.904Z,92.83
2023-03-26T06:16:00.918Z,92.91
2023-03-26T06:18:08.675Z,93.01
2023-03-26T06:20:28.723Z,92.91
2023-03-26T06:22:30.846Z,93.88
2023-03-26T06:24:52.924Z,94.66
2023-03-26T06:27:13.367Z,94.83
2023-03-26T06:29:38.490Z,94.01
2023-03-26T06:31:53.015Z,95.39
2023-03-26T06:33:58.214Z,96.35
2023-03-26T06:36:00.113Z,96.97
2023-03-26T06:38:02.029Z,96.43
2023-03-26T06:40:05.544Z,95.67
2023-03-26T06:42:20.442Z,94.88
2023-03-26T06:44:32.523Z,94.18
2023-03-26T06:46:52.626Z,93.58
2023-03-26T06:49:20.793Z,93.43
2023-03-26T06:52:02.788Z,93.08
2023-03-26T06:54:35.089Z,92.30
2023-03-26T06:56:45.047Z,92.10
2023-03-26T06:59:15.293Z,91.55
2023-03-26T07:01:35.842Z,91.16
2023-03-26T07:04:15.840Z,90.60
2023-03-26T07:06:36.277Z,90.99
2023-03-26T07:08:57.311Z,90.74
2023-03-26T07:11:19.446Z,90.77
2023-03-26T07:13:40.011Z,90.72
2023-03-26T07:16:00.555Z,90.91
2023-03-26T07:18:13.797Z,90.21
2023-03-26T07:20:17.264Z,90.41
2023-03-26T07:22:23.404Z,89.99
2023-03-26T07:24:44.130Z,89.91
2023-03-26T07:27:27.702Z,89.46
2023-03-26T07:29:47.716Z,89.76
2023-03-26T07:32:32.849Z,90.87
2023-03-26T07:35:05.265Z,91.34
2023-03-26T07:37:44.107Z,90.13
2023-03-26T07:40:33.207Z,89.99
2023-03-26T07:43:06.346Z,89.53
2023-03-26T07:45:33.841Z,89.68
2023-03-26T07:47:57.983Z,89.06
2023-03-26T07:50:23.306Z,89.42
2023-03-26T07:52:37.116Z,89.47
2023-03-26T07:54:55.505Z,89.56
2023-03-26T07:57:27.382Z,89.48
2023-03-26T07:59:55.718Z,89.04
2023-03-26T08:02:41.286Z,89.61
2023-03-26T08:05:28.444Z,89.95
2023-03-26T08:08:25.620Z,91.13
2023-03-26T08:11:14.503Z,92.34
2023-03-26T08:14:01.138Z,93.22
2023-03-26T08:16:10.988Z,94.58
2023-03-26T08:18:51.427Z,95.93
2023-03-26T08:21:17.123Z,95.65
2023-03-26T08:23:50.428Z,94.44
2023-03-26T08:26:12.691Z,94.77
2023-03-26T08:28:32.375Z,94.54
2023-03-26T08:30:34.161Z,95.29
2023-03-26T08:32:36.406Z,94.38
2023-03-26T08:34:38.959Z,95.00
2023-03-26T08:36:40.878Z,93.99
2023-03-26T08:38:42.437Z,94.45
2023-03-26T08:41:11.256Z,93.89
2023-03-26T08:43:33.842Z,93.68
2023-03-26T08:45:51.326Z,95.52
2023-03-26T08:48:30.632Z,95.49
2023-03-26T08:51:07.665Z,95.51
2023-03-26T08:53:33.786Z,94.77
2023-03-26T08:55:55.509Z,94.75
2023-03-26T08:58:09.302Z,94.58
2023-03-26T09:00:16.617Z,94.04
2023-03-26T09:02:18.184Z,93.14
2023-03-26T09:04:53.667Z,92.42
2023-03-26T09:07:13.668Z,92.80
2023-03-26T09:10:05.254Z,94.01
2023-03-26T09:12:25.554Z,93.92
2023-03-26T09:14:55.597Z,94.52
2023-03-26T09:17:32.764Z,96.49
2023-03-26T09:19:54.716Z,97.14
2023-03-26T09:22:24.280Z,96.21
2023-03-26T09:24:57.728Z,96.35
2023-03-26T09:27:09.037Z,94.90
2023-03-26T09:29:16.743Z,94.86
2023-03-26T09:31:46.727Z,94.52
2023-03-26T09:34:07.392Z,96.40
2023-03-26T09:36:21.663Z,95.74
2023-03-26T09:38:48.903Z,94.58
2023-03-26T09:41:08.289Z,95.13
2023-03-26T09:43:48.676Z,94.96
2023-03-26T09:46:12.712Z,96.11
2023-03-26T09:48:20.650Z,96.49
2023-03-26T09:50:22.146Z,95.56
2023-03-26T09:52:33.380Z,95.82
2023-03-26T09:55:03.640Z,97.39
2023-03-26T09:57:21.107Z,95.97
2023-03-26T09:59:39.564Z,93.59
2023-03-26T10:01:41.063Z,93.90
2023-03-26T10:03:52.826Z,93.46
2023-03-26T10:06:18.815Z,93.99
2023-03-26T10:08:28.251Z,94.80
2023-03-26T10:10:48.476Z,94.40
2023-03-26T10:13:12.036Z,93.14
2023-03-26T10:15:42.399Z,95.61
2023-03-26T10:18:29.443Z,95.28
2023-03-26T10:20:38.377Z,96.91
2023-03-26T10:23:15.913Z,94.67
2023-03-26T10:25:32.026Z,94.38
2023-03-26T10:27:52.238Z,93.13
2023-03-26T10:30:17.891Z,93.43
2023-03-26T10:32:22.127Z,94.47
2023-03-26T10:34:49.822Z,94.44
2023-03-26T10:37:08.612Z,94.87
2023-03-26T10:39:36.749Z,97.50
2023-03-26T10:42:08.183Z,95.83
2023-03-26T10:44:21.746Z,96.11
2023-03-26T10:46:38.386Z,97.25
2023-03-26T10:49:04.216Z,96.66
2023-03-26T10:51:36.301Z,96.92
2023-03-26T10:53:58.617Z,95.76
2023-03-26T10:56:28.576Z,93.82
2023-03-26T10:58:48.957Z,95.32
2023-03-26T11:01:04.028Z,96.09
2023-03-26T11:03:35.647Z,95.53
2023-03-26T11:05:59.753Z,96.91
2023-03-26T11:08:12.244Z,96.38
2023-03-26T11:10:26.289Z,95.82
2023-03-26T11:12:39.757Z,93.00
2023-03-26T11:15:02.052Z,93.30
2023-03-26T11:17:40.120Z,94.78
2023-03-26T11:19:53.129Z,97.85
2023-03-26T11:22:16.125Z,94.46
2023-03-26T11:24:30.758Z,92.48
2023-03-26T11:26:45.075Z,93.43
2023-03-26T11:29:31.870Z,88.92
2023-03-26T11:32:12.984Z,90.07
2023-03-26T11:34:23.355Z,82.05
2023-03-26T11:36:35.775Z,85.14
2023-03-26T11:38:49.256Z,86.74
2023-03-26T11:40:59.005Z,85.44
2023-03-26T11:43:29.931Z,85.21
2023-03-26T11:45:37.618Z,86.71
2023-03-26T11:47:46.095Z,87.34
2023-03-26T11:49:50.037Z,86.53
2023-03-26T11:51:51.582Z,84.63
2023-03-26T11:53:55.686Z,82.21
2023-03-26T11:56:23.616Z,85.52
2023-03-26T11:58:38.932Z,82.07
2023-03-26T12:00:40.538Z,84.41
2023-03-26T12:02:42.945Z,82.81
2023-03-26T12:04:50.845Z,80.62
2023-03-26T12:06:59.576Z,81.84
2023-03-26T12:09:02.548Z,78.61
2023-03-26T12:11:10.789Z,78.92
2023-03-26T12:13:21.559Z,76.55
2023-03-26T12:15:24.872Z,80.88
2023-03-26T12:17:40.127Z,80.76
2023-03-26T12:19:44.628Z,80.94
2023-03-26T12:21:49.538Z,78.02
2023-03-26T12:23:56.427Z,80.00
2023-03-26T12:26:16.091Z,80.51
2023-03-26T12:28:19.591Z,80.55
2023-03-26T12:30:39.365Z,81.23
2023-03-26T12:32:46.321Z,79.60
2023-03-26T12:34:48.847Z,78.12
2023-03-26T12:36:56.094Z,81.67
2023-03-26T12:39:42.727Z,82.77
2023-03-26T12:44:47.002Z,80.97
2023-03-26T12:44:55.607Z,82.08
2023-03-26T12:47:56.491Z,79.37
2023-03-26T12:48:56.632Z,79.63
2023-03-26T12:51:06.330Z,82.84
2023-03-26T12:53:48.754Z,85.38
2023-03-26T12:56:12.404Z,82.15
2023-03-26T12:58:38.342Z,83.61
2023-03-26T13:01:02.940Z,84.34
2023-03-26T13:03:17.934Z,87.58
2023-03-26T13:05:47.584Z,85.02
2023-03-26T13:08:26.697Z,85.15
2023-03-26T13:10:43.156Z,86.24
2023-03-26T13:13:23.399Z,86.74
2023-03-26T13:15:25.024Z,88.02
2023-03-26T13:18:16.340Z,90.47
2023-03-26T13:20:43.498Z,83.56
2023-03-26T13:22:56.214Z,87.55
2023-03-26T13:25:18.540Z,83.01
2023-03-26T13:27:35.804Z,81.45
2023-03-26T13:29:56.694Z,81.66
2023-03-26T13:32:01.488Z,80.09
2023-03-26T13:34:09.075Z,78.10
2023-03-26T13:36:31.291Z,78.90
2023-03-26T13:38:59.222Z,78.89
2023-03-26T13:41:29.930Z,78.91
2023-03-26T13:44:05.952Z,80.03
2023-03-26T13:46:23.839Z,80.43
2023-03-26T13:48:36.047Z,81.09
2023-03-26T13:50:43.671Z,81.16
2023-03-26T13:52:52.198Z,86.90
2023-03-26T13:55:12.176Z,70.05
2023-03-26T13:57:35.398Z,68.58
2023-03-26T13:59:45.647Z,64.24
2023-03-26T14:01:53.432Z,68.45
2023-03-26T14:04:07.715Z,59.69
2023-03-26T14:06:27.793Z,57.80
2023-03-26T14:08:41.966Z,52.92
2023-03-26T14:10:51.334Z,54.55
2023-03-26T14:13:19.198Z,55.63
2023-03-26T14:15:34.592Z,57.59
2023-03-26T14:17:47.406Z,53.73
2023-03-26T14:19:51.848Z,55.16
2023-03-26T14:22:38.653Z,57.85
2023-03-26T14:25:02.468Z,62.34
2023-03-26T14:27:16.359Z,67.07
2023-03-26T14:29:41.543Z,67.91
2023-03-26T14:32:29.917Z,67.03
2023-03-26T14:35:06.614Z,66.37
2023-03-26T14:37:28.171Z,64.79
2023-03-26T14:39:56.462Z,68.67
2023-03-26T14:42:02.663Z,68.78
2023-03-26T14:44:24.701Z,71.32
2023-03-26T14:46:35.217Z,71.62
2023-03-26T14:49:06.812Z,73.84
2023-03-26T14:51:23.300Z,71.48
2023-03-26T14:53:33.409Z,68.68
2023-03-26T14:55:44.169Z,71.01
2023-03-26T14:58:23.399Z,71.07
2023-03-26T15:00:56.250Z,72.77
2023-03-26T15:03:09.634Z,72.99
2023-03-26T15:05:46.391Z,73.09
2023-03-26T15:08:11.763Z,74.51
2023-03-26T15:10:42.343Z,76.58
2023-03-26T15:13:06.114Z,75.23
2023-03-26T15:15:29.306Z,73.70
2023-03-26T15:17:55.671Z,74.04
2023-03-26T15:20:31.684Z,72.27
2023-03-26T15:23:25.458Z,72.07
2023-03-26T15:25:47.829Z,66.40
2023-03-26T15:28:18.451Z,61.08
2023-03-26T15:30:30.122Z,61.75
2023-03-26T15:32:49.398Z,56.43
2023-03-26T15:35:30.378Z,53.98
2023-03-26T15:38:03.144Z,65.23
2023-03-26T15:40:17.087Z,51.59
2023-03-26T15:42:45.544Z,62.70
2023-03-26T15:45:22.380Z,66.37
2023-03-26T15:47:32.830Z,61.17
2023-03-26T15:49:58.998Z,66.21
2023-03-26T15:52:23.921Z,60.21
2023-03-26T15:54:30.139Z,52.69
2023-03-26T15:57:02.737Z,63.84
2023-03-26T15:59:28.808Z,52.25
2023-03-26T16:02:03.713Z,55.21
2023-03-26T16:04:35.925Z,58.46
2023-03-26T16:06:55.202Z,60.50
2023-03-26T16:09:38.565Z,62.64
2023-03-26T16:12:12.402Z,63.18
2023-03-26T16:14:35.939Z,63.90
2023-03-26T16:16:54.411Z,65.77
2023-03-26T16:19:20.900Z,64.91
2023-03-26T16:21:31.263Z,63.68
2023-03-26T16:23:47.879Z,65.38
2023-03-26T16:26:07.725Z,65.74
2023-03-26T16:28:27.919Z,67.46
2023-03-26T16:30:31.400Z,66.97
2023-03-26T16:32:36.080Z,66.28
2023-03-26T16:34:57.158Z,67.27
2023-03-26T16:36:59.102Z,66.61
2023-03-26T16:39:04.322Z,67.06
2023-03-26T16:41:26.939Z,68.63
2023-03-26T16:43:48.091Z,73.61
2023-03-26T16:46:28.567Z,79.50
2023-03-26T16:49:03.655Z,82.34
2023-03-26T16:51:18.517Z,84.60
2023-03-26T16:53:41.612Z,85.30
2023-03-26T16:55:58.929Z,87.64
2023-03-26T16:58:22.439Z,86.54
2023-03-26T17:00:29.996Z,86.71
2023-03-26T17:02:42.511Z,85.62
2023-03-26T17:04:48.523Z,86.05
2023-03-26T17:07:13.942Z,88.19
2023-03-26T17:09:51.775Z,87.76
2023-03-26T17:12:08.382Z,88.42
2023-03-26T17:14:34.635Z,87.29
2023-03-26T17:16:42.715Z,87.78
2023-03-26T17:19:00.591Z,88.48
2023-03-26T17:21:19.656Z,88.29
2023-03-26T17:23:27.135Z,87.74
2023-03-26T17:25:57.217Z,87.63
2023-03-26T17:28:25.130Z,88.80
2023-03-26T17:30:38.204Z,89.05
2023-03-26T17:32:58.666Z,87.56
2023-03-26T17:35:03.517Z,88.01
2023-03-26T17:37:27.797Z,89.82
2023-03-26T17:39:46.660Z,89.64
2023-03-26T17:42:01.138Z,88.72
2023-03-26T17:44:28.926Z,88.23
2023-03-26T17:46:42.696Z,88.30
2023-03-26T17:48:49.212Z,88.84
2023-03-26T17:50:56.366Z,89.24
2023-03-26T17:53:29.167Z,89.38
2023-03-26T17:55:34.834Z,89.53
2023-03-26T17:57:50.345Z,88.58
2023-03-26T17:59:57.661Z,88.20
2023-03-26T18:02:03.454Z,87.96
2023-03-26T18:04:15.511Z,88.86
2023-03-26T18:06:40.644Z,88.54
2023-03-26T18:09:11.983Z,89.23
2023-03-26T18:11:23.863Z,88.90
2023-03-26T18:13:45.911Z,88.76
2023-03-26T18:16:06.108Z,88.58
2023-03-26T18:18:22.570Z,89.37
2023-03-26T18:20:28.203Z,89.53
2023-03-26T18:22:30.354Z,88.95
2023-03-26T18:24:38.305Z,89.51
2023-03-26T18:26:42.623Z,90.49
2023-03-26T18:28:49.331Z,91.04
2023-03-26T18:30:51.735Z,91.78
2023-03-26T18:33:01.201Z,92.27
2023-03-26T18:35:20.121Z,91.11
2023-03-26T18:37:24.055Z,91.54
2023-03-26T18:39:25.705Z,93.04
2023-03-26T18:41:31.231Z,92.85
2023-03-26T18:43:35.649Z,93.24
2023-03-26T18:45:49.481Z,92.23
2023-03-26T18:47:57.842Z,91.57
2023-03-26T18:50:00.098Z,92.47
2023-03-26T18:52:01.853Z,92.85
2023-03-26T18:54:06.557Z,93.30
2023-03-26T18:56:27.791Z,94.97
2023-03-26T18:58:37.134Z,94.52
2023-03-26T19:00:40.013Z,94.27
2023-03-26T19:02:41.833Z,94.13
2023-03-26T19:04:46.973Z,94.48
2023-03-26T19:06:53.638Z,95.37
2023-03-26T19:08:57.063Z,95.27
2023-03-26T19:11:02.666Z,94.08
2023-03-26T19:13:04.281Z,94.81
2023-03-26T19:15:11.034Z,95.31
2023-03-26T19:17:12.959Z,96.08
2023-03-26T19:19:22.418Z,95.95
2023-03-26T19:21:25.068Z,94.89
2023-03-26T19:23:31.108Z,95.33
2023-03-26T19:25:45.980Z,95.16
2023-03-26T19:27:48.202Z,94.81
2023-03-26T19:29:50.176Z,94.15
2023-03-26T19:31:52.762Z,93.20
2023-03-26T19:33:58.138Z,94.24
2023-03-26T19:36:15.931Z,94.89
2023-03-26T19:38:29.548Z,95.57
2023-03-26T19:40:33.642Z,95.66
2023-03-26T19:42:43.910Z,96.15
2023-03-26T19:44:46.360Z,95.84
2023-03-26T19:46:54.005Z,96.20
2023-03-26T19:48:57.536Z,95.90
2023-03-26T19:51:05.990Z,95.93
2023-03-26T19:53:16.600Z,94.84
2023-03-26T19:55:24.245Z,95.19
2023-03-26T19:57:25.772Z,94.83
2023-03-26T19:59:27.372Z,95.42
2023-03-26T20:01:30.626Z,95.09
2023-03-26T20:03:44.449Z,95.98
2023-03-26T20:05:46.153Z,95.73
2023-03-26T20:07:50.070Z,95.59
2023-03-26T20:09:52.421Z,95.35
2023-03-26T20:11:54.237Z,95.61
2023-03-26T20:13:55.875Z,95.83
2023-03-26T20:16:07.192Z,95.59
2023-03-26T20:18:08.898Z,95.72
2023-03-26T20:20:13.853Z,95.76
2023-03-26T20:22:23.511Z,96.14
2023-03-26T20:24:26.013Z,96.21
2023-03-26T20:26:27.694Z,96.64
2023-03-26T20:28:30.380Z,96.59
2023-03-26T20:30:37.904Z,97.00
2023-03-26T20:32:40.568Z,96.99
2023-03-26T20:34:42.054Z,96.37
2023-03-26T20:36:45.460Z,96.03
2023-03-26T20:38:47.222Z,96.32
2023-03-26T20:40:49.406Z,96.78
2023-03-26T20:42:51.274Z,96.02
2023-03-26T20:44:52.870Z,96.08
2023-03-26T20:46:56.291Z,96.22
2023-03-26T20:48:58.064Z,97.07
2023-03-26T20:50:59.686Z,97.67
2023-03-26T20:53:02.480Z,97.52
2023-03-26T20:55:04.334Z,96.83
2023-03-26T20:57:05.920Z,97.03
2023-03-26T20:59:11.345Z,96.02
2023-03-26T21:01:14.234Z,95.54
2023-03-26T21:03:18.072Z,96.59
2023-03-26T21:05:24.865Z,96.22
2023-03-26T21:07:26.684Z,95.56
2023-03-26T21:09:34.084Z,96.04
2023-03-26T21:12:04.927Z,98.34
2023-03-26T21:14:18.361Z,99.75
2023-03-26T21:16:20.238Z,100.00
2023-03-26T21:18:22.499Z,98.31
2023-03-26T21:20:27.868Z,98.42
2023-03-26T21:23:08.716Z,98.88
2023-03-26T21:25:28.397Z,97.65
2023-03-26T21:27:36.255Z,97.80
2023-03-26T21:29:39.183Z,97.50
2023-03-26T21:31:41.066Z,98.41
2023-03-26T21:33:42.777Z,99.39
2023-03-26T21:35:44.840Z,99.75
2023-03-26T21:37:49.688Z,100.00
2023-03-26T21:39:51.514Z,99.37
2023-03-26T21:42:04.336Z,99.76
2023-03-26T21:44:08.355Z,98.83
2023-03-26T21:46:10.772Z,98.43
2023-03-26T21:48:13.018Z,99.06
2023-03-26T21:50:17.928Z,99.06
2023-03-26T21:52:19.715Z,99.37
2023-03-26T21:54:23.052Z,98.77
2023-03-26T21:56:43.705Z,98.78
2023-03-26T21:58:51.649Z,98.98
2023-03-26T22:01:30.509Z,99.37
2023-03-26T22:03:55.096Z,98.72
2023-03-26T22:06:07.009Z,98.08
2023-03-26T22:08:21.819Z,99.07
2023-03-26T22:10:23.249Z,99.33
2023-03-26T22:12:25.563Z,98.61
2023-03-26T22:14:28.179Z,98.15
2023-03-26T22:16:29.898Z,99.28
2023-03-26T22:18:32.832Z,98.27
2023-03-26T22:20:34.540Z,98.54
2023-03-26T22:22:36.096Z,99.23
2023-03-26T22:24:38.408Z,99.61
2023-03-26T22:26:39.900Z,98.94
2023-03-26T22:28:41.588Z,99.70
2023-03-26T22:30:43.120Z,98.90
2023-03-26T22:32:45.466Z,98.43
2023-03-26T22:34:47.085Z,98.21
2023-03-26T22:36:48.685Z,97.89
2023-03-26T22:38:53.538Z,98.45
2023-03-26T22:40:57.150Z,98.42
2023-03-26T22:42:58.908Z,98.05
2023-03-26T22:45:00.617Z,98.21
2023-03-26T22:47:02.226Z,97.26
2023-03-26T22:49:03.964Z,96.54
2023-03-26T22:51:08.009Z,97.29
2023-03-26T22:53:09.602Z,97.53
2023-03-26T22:55:11.551Z,97.30
2023-03-26T22:57:13.146Z,97.75
2023-03-26T22:59:15.300Z,98.15
2023-03-26T23:01:21.241Z,97.70
2023-03-26T23:03:35.235Z,97.83
2023-03-26T23:05:38.142Z,98.67
2023-03-26T23:07:40.152Z,98.20
2023-03-26T23:09:41.799Z,97.57
2023-03-26T23:11:43.469Z,97.74
2023-03-26T23:13:47.748Z,98.07
2023-03-26T23:15:51.010Z,98.33
2023-03-26T23:17:54.708Z,98.34
2023-03-26T23:19:56.766Z,97.80
2023-03-26T23:21:58.471Z,98.12
2023-03-26T23:24:00.287Z,97.13
2023-03-26T23:26:06.670Z,97.96
2023-03-26T23:28:08.266Z,96.95
2023-03-26T23:30:10.869Z,97.11
2023-03-26T23:32:23.574Z,97.17
2023-03-26T23:34:26.617Z,96.35
2023-03-26T23:36:28.245Z,96.54
2023-03-26T23:38:43.481Z,98.10
2023-03-26T23:40:57.220Z,96.94
2023-03-26T23:42:59.331Z,98.12
2023-03-26T23:45:00.962Z,98.26
2023-03-26T23:47:02.544Z,99.18
2023-03-26T23:49:04.111Z,97.50
2023-03-26T23:51:06.744Z,98.65
2023-03-26T23:53:08.426Z,97.90
2023-03-26T23:55:10.088Z,98.89
2023-03-26T23:57:11.889Z,98.44
2023-03-26T23:59:13.632Z,98.85
